sensor_id;sensor_type;location;lat;lon;timestamp;P1;durP1;ratioP1;P2;durP2;ratioP2
23812;SDS011;12087;45.190;5.688;2024-02-26T00:02:45;4.72;;;0.30;;
23812;SDS011;12087;45.190;5.688;2024-02-26T00:08:07;0.32;;;0.32;;
23812;SDS011;12087;45.190;5.688;2024-02-26T00:13:31;0.28;;;0.28;;
23812;SDS011;12087;45.190;5.688;2024-02-26T00:18:53;1.13;;;0.32;;
23812;SDS011;12087;45.190;5.688;2024-02-26T00:24:15;0.30;;;0.30;;
23812;SDS011;12087;45.190;5.688;2024-02-26T00:29:39;0.55;;;0.40;;
23812;SDS011;12087;45.190;5.688;2024-02-26T00:35:01;0.40;;;0.40;;
23812;SDS011;12087;45.190;5.688;2024-02-26T00:40:23;0.30;;;0.30;;
23812;SDS011;12087;45.190;5.688;2024-02-26T00:45:47;0.70;;;0.30;;
23812;SDS011;12087;45.190;5.688;2024-02-26T00:51:09;0.20;;;0.20;;
23812;SDS011;12087;45.190;5.688;2024-02-26T00:56:32;0.30;;;0.30;;
23812;SDS011;12087;45.190;5.688;2024-02-26T01:01:56;0.30;;;0.30;;
23812;SDS011;12087;45.190;5.688;2024-02-26T01:07:20;0.25;;;0.25;;
23812;SDS011;12087;45.190;5.688;2024-02-26T01:12:42;0.28;;;0.28;;
23812;SDS011;12087;45.190;5.688;2024-02-26T01:18:05;0.30;;;0.30;;
23812;SDS011;12087;45.190;5.688;2024-02-26T01:23:28;0.30;;;0.30;;
23812;SDS011;12087;45.190;5.688;2024-02-26T01:28:50;0.20;;;0.20;;
23812;SDS011;12087;45.190;5.688;2024-02-26T01:34:13;0.32;;;0.30;;
23812;SDS011;12087;45.190;5.688;2024-02-26T01:39:36;0.50;;;0.50;;
23812;SDS011;12087;45.190;5.688;2024-02-26T01:44:58;0.30;;;0.30;;
23812;SDS011;12087;45.190;5.688;2024-02-26T01:50:21;0.20;;;0.20;;
23812;SDS011;12087;45.190;5.688;2024-02-26T01:55:44;0.20;;;0.20;;
23812;SDS011;12087;45.190;5.688;2024-02-26T02:01:06;0.22;;;0.22;;
23812;SDS011;12087;45.190;5.688;2024-02-26T02:06:32;2.15;;;0.40;;
23812;SDS011;12087;45.190;5.688;2024-02-26T02:11:54;1.95;;;0.50;;
23812;SDS011;12087;45.190;5.688;2024-02-26T02:17:18;0.30;;;0.30;;
23812;SDS011;12087;45.190;5.688;2024-02-26T02:22:42;0.20;;;0.20;;
23812;SDS011;12087;45.190;5.688;2024-02-26T02:28:05;0.50;;;0.38;;
23812;SDS011;12087;45.190;5.688;2024-02-26T02:33:27;0.30;;;0.30;;
23812;SDS011;12087;45.190;5.688;2024-02-26T02:38:51;0.40;;;0.40;;
23812;SDS011;12087;45.190;5.688;2024-02-26T02:44:13;0.20;;;0.20;;
23812;SDS011;12087;45.190;5.688;2024-02-26T02:49:36;0.57;;;0.57;;
23812;SDS011;12087;45.190;5.688;2024-02-26T02:55:00;0.22;;;0.22;;
23812;SDS011;12087;45.190;5.688;2024-02-26T03:00:22;0.50;;;0.43;;
23812;SDS011;12087;45.190;5.688;2024-02-26T03:05:45;0.40;;;0.40;;
23812;SDS011;12087;45.190;5.688;2024-02-26T03:11:12;0.70;;;0.40;;
23812;SDS011;12087;45.190;5.688;2024-02-26T03:16:35;0.38;;;0.30;;
23812;SDS011;12087;45.190;5.688;2024-02-26T03:21:57;0.40;;;0.40;;
23812;SDS011;12087;45.190;5.688;2024-02-26T03:27:21;0.47;;;0.32;;
23812;SDS011;12087;45.190;5.688;2024-02-26T03:32:43;0.50;;;0.47;;
23812;SDS011;12087;45.190;5.688;2024-02-26T03:38:07;0.30;;;0.30;;
23812;SDS011;12087;45.190;5.688;2024-02-26T03:43:30;1.08;;;0.40;;
23812;SDS011;12087;45.190;5.688;2024-02-26T03:48:53;0.40;;;0.40;;
23812;SDS011;12087;45.190;5.688;2024-02-26T03:54:15;0.57;;;0.50;;
23812;SDS011;12087;45.190;5.688;2024-02-26T03:59:39;0.28;;;0.28;;
23812;SDS011;12087;45.190;5.688;2024-02-26T04:05:01;2.15;;;0.40;;
23812;SDS011;12087;45.190;5.688;2024-02-26T04:10:23;0.47;;;0.47;;
23812;SDS011;12087;45.190;5.688;2024-02-26T04:15:47;1.15;;;0.70;;
23812;SDS011;12087;45.190;5.688;2024-02-26T04:21:09;1.13;;;0.57;;
23812;SDS011;12087;45.190;5.688;2024-02-26T04:26:31;0.40;;;0.40;;
23812;SDS011;12087;45.190;5.688;2024-02-26T04:31:55;0.38;;;0.38;;
23812;SDS011;12087;45.190;5.688;2024-02-26T04:37:18;1.48;;;0.40;;
23812;SDS011;12087;45.190;5.688;2024-02-26T04:42:40;0.70;;;0.50;;
23812;SDS011;12087;45.190;5.688;2024-02-26T04:48:04;0.35;;;0.35;;
23812;SDS011;12087;45.190;5.688;2024-02-26T04:53:27;0.88;;;0.50;;
23812;SDS011;12087;45.190;5.688;2024-02-26T04:58:49;0.60;;;0.60;;
23812;SDS011;12087;45.190;5.688;2024-02-26T05:04:12;0.85;;;0.60;;
23812;SDS011;12087;45.190;5.688;2024-02-26T05:09:35;0.52;;;0.40;;
23812;SDS011;12087;45.190;5.688;2024-02-26T05:14:57;0.38;;;0.38;;
23812;SDS011;12087;45.190;5.688;2024-02-26T05:20:21;1.40;;;0.73;;
23812;SDS011;12087;45.190;5.688;2024-02-26T05:25:43;0.90;;;0.70;;
23812;SDS011;12087;45.190;5.688;2024-02-26T05:31:07;1.27;;;0.88;;
23812;SDS011;12087;45.190;5.688;2024-02-26T05:36:31;0.80;;;0.60;;
23812;SDS011;12087;45.190;5.688;2024-02-26T05:41:53;0.55;;;0.55;;
23812;SDS011;12087;45.190;5.688;2024-02-26T05:47:15;1.05;;;0.60;;
23812;SDS011;12087;45.190;5.688;2024-02-26T05:52:39;1.55;;;0.55;;
23812;SDS011;12087;45.190;5.688;2024-02-26T05:58:02;1.55;;;1.30;;
23812;SDS011;12087;45.190;5.688;2024-02-26T06:03:24;1.80;;;1.60;;
23812;SDS011;12087;45.190;5.688;2024-02-26T06:08:47;9.85;;;7.43;;
23812;SDS011;12087;45.190;5.688;2024-02-26T06:14:10;4.57;;;3.10;;
23812;SDS011;12087;45.190;5.688;2024-02-26T06:19:34;2.55;;;1.35;;
23812;SDS011;12087;45.190;5.688;2024-02-26T06:24:58;6.47;;;4.35;;
23812;SDS011;12087;45.190;5.688;2024-02-26T06:30:20;5.32;;;2.83;;
23812;SDS011;12087;45.190;5.688;2024-02-26T06:35:42;6.05;;;2.92;;
23812;SDS011;12087;45.190;5.688;2024-02-26T06:41:05;6.60;;;4.60;;
23812;SDS011;12087;45.190;5.688;2024-02-26T06:46:28;14.13;;;11.25;;
23812;SDS011;12087;45.190;5.688;2024-02-26T06:51:50;14.57;;;10.57;;
23812;SDS011;12087;45.190;5.688;2024-02-26T06:57:14;17.63;;;15.23;;
23812;SDS011;12087;45.190;5.688;2024-02-26T07:02:36;10.55;;;7.55;;
23812;SDS011;12087;45.190;5.688;2024-02-26T07:07:58;8.13;;;7.22;;
23812;SDS011;12087;45.190;5.688;2024-02-26T07:13:22;3.45;;;2.92;;
23812;SDS011;12087;45.190;5.688;2024-02-26T07:18:44;3.75;;;3.10;;
23812;SDS011;12087;45.190;5.688;2024-02-26T07:24:07;11.57;;;9.85;;
23812;SDS011;12087;45.190;5.688;2024-02-26T07:29:31;4.38;;;2.38;;
23812;SDS011;12087;45.190;5.688;2024-02-26T07:34:53;4.32;;;3.05;;
23812;SDS011;12087;45.190;5.688;2024-02-26T07:40:15;2.22;;;1.50;;
23812;SDS011;12087;45.190;5.688;2024-02-26T07:45:39;9.80;;;7.63;;
23812;SDS011;12087;45.190;5.688;2024-02-26T07:51:01;6.05;;;1.80;;
23812;SDS011;12087;45.190;5.688;2024-02-26T07:56:24;3.55;;;2.00;;
23812;SDS011;12087;45.190;5.688;2024-02-26T08:01:50;8.88;;;7.03;;
23812;SDS011;12087;45.190;5.688;2024-02-26T08:07:12;21.90;;;17.15;;
23812;SDS011;12087;45.190;5.688;2024-02-26T08:12:35;13.57;;;7.63;;
23812;SDS011;12087;45.190;5.688;2024-02-26T08:17:58;26.17;;;19.35;;
23812;SDS011;12087;45.190;5.688;2024-02-26T08:23:23;51.78;;;40.15;;
23812;SDS011;12087;45.190;5.688;2024-02-26T08:28:46;20.65;;;16.00;;
23812;SDS011;12087;45.190;5.688;2024-02-26T08:34:10;8.90;;;7.47;;
23812;SDS011;12087;45.190;5.688;2024-02-26T08:39:33;5.80;;;4.63;;
23812;SDS011;12087;45.190;5.688;2024-02-26T08:44:55;16.67;;;13.52;;
23812;SDS011;12087;45.190;5.688;2024-02-26T08:50:21;4.75;;;4.20;;
23812;SDS011;12087;45.190;5.688;2024-02-26T08:55:44;7.65;;;6.95;;
23812;SDS011;12087;45.190;5.688;2024-02-26T09:01:06;2.88;;;1.45;;
23812;SDS011;12087;45.190;5.688;2024-02-26T09:06:31;3.45;;;2.60;;
23812;SDS011;12087;45.190;5.688;2024-02-26T09:11:53;4.53;;;2.05;;
23812;SDS011;12087;45.190;5.688;2024-02-26T09:17:15;4.57;;;3.63;;
23812;SDS011;12087;45.190;5.688;2024-02-26T09:22:39;5.85;;;3.45;;
23812;SDS011;12087;45.190;5.688;2024-02-26T09:28:02;3.05;;;2.00;;
23812;SDS011;12087;45.190;5.688;2024-02-26T09:33:26;2.58;;;2.00;;
23812;SDS011;12087;45.190;5.688;2024-02-26T09:38:49;4.75;;;1.90;;
23812;SDS011;12087;45.190;5.688;2024-02-26T09:44:12;8.48;;;5.00;;
23812;SDS011;12087;45.190;5.688;2024-02-26T09:49:39;9.88;;;6.22;;
23812;SDS011;12087;45.190;5.688;2024-02-26T09:55:05;6.70;;;6.00;;
23812;SDS011;12087;45.190;5.688;2024-02-26T10:00:30;20.98;;;18.13;;
23812;SDS011;12087;45.190;5.688;2024-02-26T10:05:54;26.60;;;21.75;;
23812;SDS011;12087;45.190;5.688;2024-02-26T10:11:19;28.45;;;20.55;;
23812;SDS011;12087;45.190;5.688;2024-02-26T10:16:42;18.13;;;11.60;;
23812;SDS011;12087;45.190;5.688;2024-02-26T10:22:04;23.20;;;14.23;;
23812;SDS011;12087;45.190;5.688;2024-02-26T10:27:28;47.58;;;29.05;;
23812;SDS011;12087;45.190;5.688;2024-02-26T10:32:51;15.73;;;9.90;;
23812;SDS011;12087;45.190;5.688;2024-02-26T10:38:13;3.42;;;2.85;;
23812;SDS011;12087;45.190;5.688;2024-02-26T10:43:41;3.95;;;3.25;;
23812;SDS011;12087;45.190;5.688;2024-02-26T10:49:04;3.67;;;2.30;;
23812;SDS011;12087;45.190;5.688;2024-02-26T10:54:29;1.50;;;1.25;;
23812;SDS011;12087;45.190;5.688;2024-02-26T10:59:53;13.18;;;11.77;;
23812;SDS011;12087;45.190;5.688;2024-02-26T11:05:17;12.43;;;6.25;;
23812;SDS011;12087;45.190;5.688;2024-02-26T11:10:39;13.90;;;10.25;;
23812;SDS011;12087;45.190;5.688;2024-02-26T11:16:04;10.13;;;6.85;;
23812;SDS011;12087;45.190;5.688;2024-02-26T11:21:28;1.85;;;1.58;;
23812;SDS011;12087;45.190;5.688;2024-02-26T11:27:01;4.20;;;2.22;;
23812;SDS011;12087;45.190;5.688;2024-02-26T11:32:27;4.43;;;3.05;;
23812;SDS011;12087;45.190;5.688;2024-02-26T11:37:52;2.83;;;2.00;;
23812;SDS011;12087;45.190;5.688;2024-02-26T11:43:16;14.45;;;8.48;;
23812;SDS011;12087;45.190;5.688;2024-02-26T11:48:39;30.42;;;17.10;;
23812;SDS011;12087;45.190;5.688;2024-02-26T11:54:02;2.25;;;1.60;;
23812;SDS011;12087;45.190;5.688;2024-02-26T11:59:37;24.63;;;13.15;;
23812;SDS011;12087;45.190;5.688;2024-02-26T12:05:01;14.73;;;7.53;;
23812;SDS011;12087;45.190;5.688;2024-02-26T12:10:24;6.57;;;3.78;;
23812;SDS011;12087;45.190;5.688;2024-02-26T12:15:54;2.67;;;1.60;;
23812;SDS011;12087;45.190;5.688;2024-02-26T12:21:18;11.32;;;6.10;;
23812;SDS011;12087;45.190;5.688;2024-02-26T12:26:41;15.02;;;8.52;;
23812;SDS011;12087;45.190;5.688;2024-02-26T12:32:04;7.05;;;4.30;;
23812;SDS011;12087;45.190;5.688;2024-02-26T12:37:28;10.15;;;5.50;;
23812;SDS011;12087;45.190;5.688;2024-02-26T12:42:50;0.80;;;0.73;;
23812;SDS011;12087;45.190;5.688;2024-02-26T12:48:15;36.45;;;24.40;;
23812;SDS011;12087;45.190;5.688;2024-02-26T12:53:38;2.28;;;1.48;;
23812;SDS011;12087;45.190;5.688;2024-02-26T12:59:01;1.88;;;0.40;;
23812;SDS011;12087;45.190;5.688;2024-02-26T13:04:24;2.58;;;1.23;;
23812;SDS011;12087;45.190;5.688;2024-02-26T13:09:48;3.90;;;0.60;;
23812;SDS011;12087;45.190;5.688;2024-02-26T13:15:13;2.97;;;0.70;;
23812;SDS011;12087;45.190;5.688;2024-02-26T13:20:37;2.78;;;0.80;;
23812;SDS011;12087;45.190;5.688;2024-02-26T13:26:01;1.30;;;0.65;;
23812;SDS011;12087;45.190;5.688;2024-02-26T13:31:24;0.93;;;0.60;;
23812;SDS011;12087;45.190;5.688;2024-02-26T13:36:46;0.77;;;0.63;;
23812;SDS011;12087;45.190;5.688;2024-02-26T13:42:09;0.60;;;0.50;;
23812;SDS011;12087;45.190;5.688;2024-02-26T13:47:32;1.30;;;0.60;;
23812;SDS011;12087;45.190;5.688;2024-02-26T13:52:54;1.23;;;0.50;;
23812;SDS011;12087;45.190;5.688;2024-02-26T13:58:19;1.23;;;0.65;;
23812;SDS011;12087;45.190;5.688;2024-02-26T14:03:43;1.30;;;0.57;;
23812;SDS011;12087;45.190;5.688;2024-02-26T14:09:06;0.95;;;0.70;;
23812;SDS011;12087;45.190;5.688;2024-02-26T14:14:30;1.70;;;0.70;;
23812;SDS011;12087;45.190;5.688;2024-02-26T14:19:56;0.85;;;0.60;;
23812;SDS011;12087;45.190;5.688;2024-02-26T14:25:18;1.30;;;0.80;;
23812;SDS011;12087;45.190;5.688;2024-02-26T14:30:42;1.63;;;0.90;;
23812;SDS011;12087;45.190;5.688;2024-02-26T14:36:05;4.82;;;0.82;;
23812;SDS011;12087;45.190;5.688;2024-02-26T14:41:28;2.03;;;0.80;;
23812;SDS011;12087;45.190;5.688;2024-02-26T14:46:51;3.85;;;0.60;;
23812;SDS011;12087;45.190;5.688;2024-02-26T14:52:14;2.47;;;0.75;;
23812;SDS011;12087;45.190;5.688;2024-02-26T14:57:36;2.10;;;0.70;;
23812;SDS011;12087;45.190;5.688;2024-02-26T15:03:00;1.65;;;0.63;;
23812;SDS011;12087;45.190;5.688;2024-02-26T15:08:22;1.63;;;0.50;;
23812;SDS011;12087;45.190;5.688;2024-02-26T15:13:44;1.95;;;0.55;;
23812;SDS011;12087;45.190;5.688;2024-02-26T15:19:07;1.52;;;0.70;;
23812;SDS011;12087;45.190;5.688;2024-02-26T15:24:30;3.47;;;0.80;;
23812;SDS011;12087;45.190;5.688;2024-02-26T15:29:52;1.15;;;0.70;;
23812;SDS011;12087;45.190;5.688;2024-02-26T15:35:19;4.18;;;0.85;;
23812;SDS011;12087;45.190;5.688;2024-02-26T15:40:41;1.20;;;0.90;;
23812;SDS011;12087;45.190;5.688;2024-02-26T15:46:06;2.42;;;1.02;;
23812;SDS011;12087;45.190;5.688;2024-02-26T15:51:30;3.70;;;1.27;;
23812;SDS011;12087;45.190;5.688;2024-02-26T15:56:52;1.80;;;0.90;;
23812;SDS011;12087;45.190;5.688;2024-02-26T16:02:14;1.27;;;0.60;;
23812;SDS011;12087;45.190;5.688;2024-02-26T16:07:40;2.65;;;0.70;;
23812;SDS011;12087;45.190;5.688;2024-02-26T16:13:05;1.73;;;0.68;;
23812;SDS011;12087;45.190;5.688;2024-02-26T16:18:29;5.05;;;1.50;;
23812;SDS011;12087;45.190;5.688;2024-02-26T16:23:53;1.75;;;0.75;;
23812;SDS011;12087;45.190;5.688;2024-02-26T16:29:15;0.85;;;0.70;;
23812;SDS011;12087;45.190;5.688;2024-02-26T16:34:37;2.15;;;0.90;;
23812;SDS011;12087;45.190;5.688;2024-02-26T16:40:02;1.45;;;0.77;;
23812;SDS011;12087;45.190;5.688;2024-02-26T16:45:26;2.85;;;1.00;;
23812;SDS011;12087;45.190;5.688;2024-02-26T16:50:48;4.05;;;1.20;;
23812;SDS011;12087;45.190;5.688;2024-02-26T16:56:13;1.95;;;0.80;;
23812;SDS011;12087;45.190;5.688;2024-02-26T17:01:35;5.72;;;0.90;;
23812;SDS011;12087;45.190;5.688;2024-02-26T17:06:57;1.55;;;0.50;;
23812;SDS011;12087;45.190;5.688;2024-02-26T17:12:22;5.45;;;0.88;;
23812;SDS011;12087;45.190;5.688;2024-02-26T17:17:44;4.60;;;1.10;;
23812;SDS011;12087;45.190;5.688;2024-02-26T17:23:07;4.93;;;1.40;;
23812;SDS011;12087;45.190;5.688;2024-02-26T17:28:30;4.38;;;1.02;;
23812;SDS011;12087;45.190;5.688;2024-02-26T17:33:53;2.00;;;1.25;;
23812;SDS011;12087;45.190;5.688;2024-02-26T17:39:15;6.82;;;1.60;;
23812;SDS011;12087;45.190;5.688;2024-02-26T17:44:39;5.13;;;1.80;;
23812;SDS011;12087;45.190;5.688;2024-02-26T17:50:03;7.28;;;4.28;;
23812;SDS011;12087;45.190;5.688;2024-02-26T17:55:25;3.58;;;1.50;;
23812;SDS011;12087;45.190;5.688;2024-02-26T18:00:49;2.83;;;1.80;;
23812;SDS011;12087;45.190;5.688;2024-02-26T18:06:12;2.60;;;1.38;;
23812;SDS011;12087;45.190;5.688;2024-02-26T18:11:34;4.07;;;2.40;;
23812;SDS011;12087;45.190;5.688;2024-02-26T18:16:57;3.28;;;1.55;;
23812;SDS011;12087;45.190;5.688;2024-02-26T18:22:19;2.65;;;1.35;;
23812;SDS011;12087;45.190;5.688;2024-02-26T18:27:42;5.30;;;2.72;;
23812;SDS011;12087;45.190;5.688;2024-02-26T18:33:06;5.47;;;2.85;;
23812;SDS011;12087;45.190;5.688;2024-02-26T18:38:28;6.45;;;2.83;;
23812;SDS011;12087;45.190;5.688;2024-02-26T18:43:51;9.93;;;3.33;;
23812;SDS011;12087;45.190;5.688;2024-02-26T18:49:15;7.68;;;2.90;;
23812;SDS011;12087;45.190;5.688;2024-02-26T18:54:37;7.90;;;3.13;;
23812;SDS011;12087;45.190;5.688;2024-02-26T19:00:01;6.65;;;3.25;;
23812;SDS011;12087;45.190;5.688;2024-02-26T19:05:26;9.68;;;4.18;;
23812;SDS011;12087;45.190;5.688;2024-02-26T19:10:48;11.98;;;4.90;;
23812;SDS011;12087;45.190;5.688;2024-02-26T19:16:10;5.80;;;3.83;;
23812;SDS011;12087;45.190;5.688;2024-02-26T19:21:34;6.47;;;4.50;;
23812;SDS011;12087;45.190;5.688;2024-02-26T19:26:56;7.38;;;3.60;;
23812;SDS011;12087;45.190;5.688;2024-02-26T19:32:18;4.82;;;3.42;;
23812;SDS011;12087;45.190;5.688;2024-02-26T19:37:42;5.82;;;2.90;;
23812;SDS011;12087;45.190;5.688;2024-02-26T19:43:04;7.50;;;3.83;;
23812;SDS011;12087;45.190;5.688;2024-02-26T19:48:26;21.08;;;9.75;;
23812;SDS011;12087;45.190;5.688;2024-02-26T19:53:51;15.73;;;8.85;;
23812;SDS011;12087;45.190;5.688;2024-02-26T19:59:14;11.00;;;6.57;;
23812;SDS011;12087;45.190;5.688;2024-02-26T20:04:39;8.38;;;5.22;;
23812;SDS011;12087;45.190;5.688;2024-02-26T20:10:03;7.85;;;4.53;;
23812;SDS011;12087;45.190;5.688;2024-02-26T20:15:26;6.50;;;3.83;;
23812;SDS011;12087;45.190;5.688;2024-02-26T20:20:48;6.18;;;3.03;;
23812;SDS011;12087;45.190;5.688;2024-02-26T20:26:12;10.55;;;3.30;;
23812;SDS011;12087;45.190;5.688;2024-02-26T20:31:35;4.95;;;3.30;;
23812;SDS011;12087;45.190;5.688;2024-02-26T20:36:57;6.95;;;4.13;;
23812;SDS011;12087;45.190;5.688;2024-02-26T20:42:22;8.95;;;3.80;;
23812;SDS011;12087;45.190;5.688;2024-02-26T20:47:45;7.53;;;3.35;;
23812;SDS011;12087;45.190;5.688;2024-02-26T20:53:09;8.45;;;3.78;;
23812;SDS011;12087;45.190;5.688;2024-02-26T20:58:33;8.52;;;4.45;;
23812;SDS011;12087;45.190;5.688;2024-02-26T21:03:55;6.70;;;2.88;;
23812;SDS011;12087;45.190;5.688;2024-02-26T21:09:18;14.82;;;2.97;;
23812;SDS011;12087;45.190;5.688;2024-02-26T21:14:41;6.28;;;2.67;;
23812;SDS011;12087;45.190;5.688;2024-02-26T21:20:04;4.50;;;2.72;;
23812;SDS011;12087;45.190;5.688;2024-02-26T21:25:28;4.18;;;2.80;;
23812;SDS011;12087;45.190;5.688;2024-02-26T21:30:52;9.77;;;4.07;;
23812;SDS011;12087;45.190;5.688;2024-02-26T21:36:17;4.80;;;3.17;;
23812;SDS011;12087;45.190;5.688;2024-02-26T21:41:40;8.85;;;3.47;;
23812;SDS011;12087;45.190;5.688;2024-02-26T21:47:03;4.47;;;3.10;;
23812;SDS011;12087;45.190;5.688;2024-02-26T21:52:26;6.28;;;2.78;;
23812;SDS011;12087;45.190;5.688;2024-02-26T21:57:48;6.70;;;4.20;;
23812;SDS011;12087;45.190;5.688;2024-02-26T22:03:12;5.57;;;3.67;;
23812;SDS011;12087;45.190;5.688;2024-02-26T22:08:35;5.63;;;3.58;;
23812;SDS011;12087;45.190;5.688;2024-02-26T22:13:58;7.90;;;3.53;;
23812;SDS011;12087;45.190;5.688;2024-02-26T22:19:21;7.70;;;3.55;;
23812;SDS011;12087;45.190;5.688;2024-02-26T22:24:44;15.82;;;3.50;;
23812;SDS011;12087;45.190;5.688;2024-02-26T22:30:06;8.38;;;3.20;;
23812;SDS011;12087;45.190;5.688;2024-02-26T22:35:31;11.57;;;3.55;;
23812;SDS011;12087;45.190;5.688;2024-02-26T22:40:53;6.47;;;3.03;;
23812;SDS011;12087;45.190;5.688;2024-02-26T22:46:15;12.98;;;3.55;;
23812;SDS011;12087;45.190;5.688;2024-02-26T22:51:39;10.52;;;3.78;;
23812;SDS011;12087;45.190;5.688;2024-02-26T22:57:01;6.63;;;3.10;;
23812;SDS011;12087;45.190;5.688;2024-02-26T23:02:24;11.57;;;3.90;;
23812;SDS011;12087;45.190;5.688;2024-02-26T23:07:48;7.07;;;2.78;;
23812;SDS011;12087;45.190;5.688;2024-02-26T23:13:10;8.00;;;3.08;;
23812;SDS011;12087;45.190;5.688;2024-02-26T23:18:32;7.35;;;4.00;;
23812;SDS011;12087;45.190;5.688;2024-02-26T23:23:56;12.77;;;3.58;;
23812;SDS011;12087;45.190;5.688;2024-02-26T23:29:21;5.72;;;3.05;;
23812;SDS011;12087;45.190;5.688;2024-02-26T23:34:43;6.53;;;3.13;;
23812;SDS011;12087;45.190;5.688;2024-02-26T23:40:07;9.30;;;3.80;;
23812;SDS011;12087;45.190;5.688;2024-02-26T23:45:30;8.38;;;3.55;;
23812;SDS011;12087;45.190;5.688;2024-02-26T23:50:53;9.95;;;4.25;;
23812;SDS011;12087;45.190;5.688;2024-02-26T23:56:16;8.23;;;3.80;;
